Time;durP1;ratioP1;P1;durP2;ratioP2;P2;SDS_P1;SDS_P2;PMS_P1;PMS_P2;Temp;Humidity;BMP_temperature;BMP_pressure;BME280_temperature;BME280_humidity;BME280_pressure;Samples;Min_cycle;Max_cycle;Signal;HPM_P1;HPM_P2
2023/11/21 00:01:08;;;;;;;7.37;5.57;;;9.20;99.90;;;;;;5083539;28;20297;-64
2023/11/21 00:03:36;;;;;;;6.93;6.30;;;9.20;99.90;;;;;;5083382;28;20199;-65
2023/11/21 00:06:04;;;;;;;7.43;6.53;;;9.20;99.90;;;;;;5083722;28;20325;-64
2023/11/21 00:08:30;;;;;;;7.43;6.70;;;9.20;99.90;;;;;;5083346;28;20242;-64
2023/11/21 00:11:00;;;;;;;9.43;7.53;;;9.10;99.90;;;;;;5092171;28;20316;-64
2023/11/21 00:13:27;;;;;;;9.10;7.10;;;9.10;99.90;;;;;;5104360;28;20293;-64
2023/11/21 00:15:54;;;;;;;11.63;7.77;;;9.10;99.90;;;;;;5095191;28;20218;-64
2023/11/21 00:18:21;;;;;;;11.73;7.30;;;9.10;99.90;;;;;;5087618;28;20275;-64
2023/11/21 00:20:49;;;;;;;10.20;7.53;;;9.10;99.90;;;;;;5087462;28;20298;-64
2023/11/21 00:23:17;;;;;;;10.63;8.33;;;9.00;99.90;;;;;;5087226;28;20625;-64
2023/11/21 00:25:45;;;;;;;11.87;8.57;;;9.00;99.90;;;;;;5087674;28;20206;-63
2023/11/21 00:28:11;;;;;;;14.00;8.60;;;9.00;99.90;;;;;;5087980;28;20206;-63
2023/11/21 00:30:39;;;;;;;12.23;8.30;;;8.90;99.90;;;;;;5087418;28;20233;-63
2023/11/21 00:33:05;;;;;;;13.53;9.07;;;8.90;99.90;;;;;;5087107;28;20211;-63
2023/11/21 00:35:32;;;;;;;15.77;9.47;;;8.80;99.90;;;;;;5087462;28;20238;-63
2023/11/21 00:38:00;;;;;;;15.97;9.77;;;8.80;99.90;;;;;;5087350;28;20213;-64
2023/11/21 00:40:27;;;;;;;14.23;9.80;;;8.80;99.90;;;;;;5087062;28;20209;-63
2023/11/21 00:42:55;;;;;;;17.63;10.37;;;8.80;99.90;;;;;;5087401;28;20289;-64
2023/11/21 00:45:22;;;;;;;19.27;9.47;;;8.80;99.90;;;;;;5087244;28;20214;-64
2023/11/21 00:47:49;;;;;;;20.77;10.33;;;8.80;99.90;;;;;;5087111;28;20212;-63
2023/11/21 00:50:16;;;;;;;22.23;10.93;;;8.70;99.90;;;;;;5087414;28;20249;-64
2023/11/21 00:52:43;;;;;;;16.73;9.80;;;8.70;99.90;;;;;;5087345;28;20304;-64
2023/11/21 00:55:11;;;;;;;18.40;10.13;;;8.60;99.90;;;;;;5087094;28;20290;-64
2023/11/21 00:57:38;;;;;;;16.83;10.17;;;8.60;99.90;;;;;;5087022;28;20577;-64
2023/11/21 01:00:10;;;;;;;14.13;9.40;;;8.60;99.90;;;;;;5087200;28;20293;-64
2023/11/21 01:02:37;;;;;;;13.87;9.53;;;8.60;99.90;;;;;;5086685;28;20202;-64
2023/11/21 01:05:05;;;;;;;15.97;9.20;;;8.50;99.90;;;;;;5086730;28;20205;-64
2023/11/21 01:07:32;;;;;;;17.07;9.50;;;8.50;99.90;;;;;;5086705;28;20238;-64
2023/11/21 01:09:59;;;;;;;13.23;8.87;;;8.50;99.90;;;;;;5086926;28;20246;-64
2023/11/21 01:12:27;;;;;;;17.77;9.80;;;8.50;99.90;;;;;;5086508;28;20206;-64
2023/11/21 01:14:54;;;;;;;13.70;9.23;;;8.50;99.90;;;;;;5086405;28;20207;-64
2023/11/21 01:17:22;;;;;;;16.93;9.07;;;8.50;99.90;;;;;;5086519;28;20264;-64
2023/11/21 01:19:49;;;;;;;13.17;9.50;;;8.50;99.90;;;;;;5086633;28;20206;-64
2023/11/21 01:22:17;;;;;;;15.70;9.00;;;8.50;99.90;;;;;;5086190;28;20202;-64
2023/11/21 01:24:44;;;;;;;13.00;8.67;;;8.50;99.90;;;;;;5085809;28;20691;-64
2023/11/21 01:27:11;;;;;;;14.33;9.03;;;8.50;99.90;;;;;;5086340;28;20245;-64
2023/11/21 01:29:39;;;;;;;17.07;8.70;;;8.40;99.90;;;;;;5085962;28;20241;-64
2023/11/21 01:32:07;;;;;;;12.90;9.10;;;8.40;99.90;;;;;;5086267;28;20207;-64
2023/11/21 01:34:34;;;;;;;15.40;9.50;;;8.40;99.90;;;;;;5085937;28;20653;-64
2023/11/21 01:37:04;;;;;;;10.27;8.87;;;8.50;99.90;;;;;;5086039;28;20285;-64
2023/11/21 01:39:31;;;;;;;10.83;8.23;;;8.50;99.90;;;;;;5086296;28;20213;-64
2023/11/21 01:41:59;;;;;;;10.33;7.87;;;8.50;99.90;;;;;;5085832;28;20301;-64
2023/11/21 01:44:25;;;;;;;8.67;7.87;;;8.50;99.90;;;;;;5085899;28;20211;-64
2023/11/21 01:46:54;;;;;;;12.13;8.47;;;8.50;99.90;;;;;;5085923;28;20301;-64
2023/11/21 01:49:21;;;;;;;10.20;7.73;;;8.50;99.90;;;;;;5085809;28;20661;-64
2023/11/21 01:51:50;;;;;;;13.50;8.57;;;8.50;99.90;;;;;;5086086;28;20230;-64
2023/11/21 01:54:18;;;;;;;8.60;7.80;;;8.50;99.90;;;;;;5085977;28;20809;-64
2023/11/21 01:56:47;;;;;;;9.57;8.53;;;8.40;99.90;;;;;;5085811;28;20302;-64
2023/11/21 01:59:17;;;;;;;10.30;8.60;;;8.40;99.90;;;;;;5086138;28;20697;-64
2023/11/21 02:01:44;;;;;;;10.03;8.07;;;8.40;99.90;;;;;;5085909;28;20223;-64
2023/11/21 02:04:12;;;;;;;9.20;8.03;;;8.40;99.90;;;;;;5085678;28;20309;-64
2023/11/21 02:06:39;;;;;;;8.60;7.70;;;8.40;99.90;;;;;;5085793;28;20302;-64
2023/11/21 02:09:06;;;;;;;9.40;8.03;;;8.40;99.90;;;;;;5085339;28;20337;-65
2023/11/21 02:11:34;;;;;;;7.57;6.77;;;8.40;99.90;;;;;;5085112;28;20229;-64
2023/11/21 02:14:01;;;;;;;11.17;7.93;;;8.30;99.90;;;;;;5085936;28;20213;-64
2023/11/21 02:16:31;;;;;;;8.33;7.23;;;8.30;99.90;;;;;;5084952;28;20740;-64
2023/11/21 02:18:58;;;;;;;8.57;7.60;;;8.30;99.90;;;;;;5086043;28;20211;-64
2023/11/21 02:21:28;;;;;;;8.50;7.13;;;8.30;99.90;;;;;;5085677;28;20317;-64
2023/11/21 02:23:57;;;;;;;7.97;7.17;;;8.30;99.90;;;;;;5086331;28;20203;-64
2023/11/21 02:26:25;;;;;;;7.30;6.60;;;8.30;99.90;;;;;;5084903;28;20299;-64
2023/11/21 02:28:53;;;;;;;7.73;6.57;;;8.20;99.90;;;;;;5085665;28;20292;-64
2023/11/21 02:31:20;;;;;;;7.10;6.43;;;8.20;99.90;;;;;;5085011;28;20234;-64
2023/11/21 02:33:47;;;;;;;8.37;7.67;;;8.10;99.90;;;;;;5085540;28;21071;-64
2023/11/21 02:36:16;;;;;;;8.00;7.30;;;8.10;99.90;;;;;;5084802;28;20605;-64
2023/11/21 02:38:43;;;;;;;7.77;7.07;;;8.00;99.90;;;;;;5084818;28;20213;-64
2023/11/21 02:41:11;;;;;;;8.27;7.57;;;8.00;99.90;;;;;;5085112;28;20554;-64
2023/11/21 02:43:38;;;;;;;8.30;7.50;;;8.00;99.90;;;;;;5084813;28;20252;-64
2023/11/21 02:46:05;;;;;;;8.50;7.80;;;8.10;99.90;;;;;;5085092;28;20207;-64
2023/11/21 02:48:32;;;;;;;8.87;8.07;;;8.00;99.90;;;;;;5085313;28;20565;-65
2023/11/21 02:50:59;;;;;;;8.97;8.13;;;8.00;99.90;;;;;;5085112;28;21042;-64
2023/11/21 02:53:26;;;;;;;8.23;7.43;;;8.10;99.90;;;;;;5084660;28;20209;-64
2023/11/21 02:55:53;;;;;;;8.60;7.70;;;8.00;99.90;;;;;;5085204;28;20935;-64
2023/11/21 02:58:21;;;;;;;8.30;7.60;;;8.00;99.90;;;;;;5085253;28;20559;-64
2023/11/21 03:00:48;;;;;;;7.70;7.10;;;8.00;99.90;;;;;;5085051;28;20216;-64
2023/11/21 03:03:15;;;;;;;8.27;7.53;;;8.00;99.90;;;;;;5084664;28;20625;-64
2023/11/21 03:05:41;;;;;;;8.77;7.97;;;8.00;99.90;;;;;;5084556;28;20677;-64
2023/11/21 03:08:08;;;;;;;9.03;8.23;;;8.00;99.90;;;;;;5084508;28;20241;-64
2023/11/21 03:10:35;;;;;;;9.13;8.33;;;8.00;99.90;;;;;;5084474;28;20242;-64
2023/11/21 03:13:02;;;;;;;9.10;8.30;;;8.00;99.90;;;;;;5084896;28;20297;-64
2023/11/21 03:15:32;;;;;;;8.40;7.70;;;8.00;99.90;;;;;;5084254;28;20581;-64
2023/11/21 03:17:59;;;;;;;8.27;7.57;;;8.00;99.90;;;;;;5084988;28;20209;-64
2023/11/21 03:20:26;;;;;;;8.37;7.57;;;8.00;99.90;;;;;;5084106;28;20702;-64
2023/11/21 03:22:53;;;;;;;9.93;8.00;;;7.90;99.90;;;;;;5084197;28;20639;-63
2023/11/21 03:25:20;;;;;;;9.33;8.00;;;7.90;99.90;;;;;;5073620;28;20218;-63
2023/11/21 03:27:47;;;;;;;8.70;7.90;;;7.90;99.90;;;;;;5084492;28;20202;-64
2023/11/21 03:30:14;;;;;;;8.40;7.60;;;7.90;99.90;;;;;;5078949;28;20286;-63
2023/11/21 03:32:43;;;;;;;8.47;7.70;;;7.90;99.90;;;;;;5062414;28;20243;-64
2023/11/21 03:35:10;;;;;;;9.00;8.10;;;7.90;99.90;;;;;;5062352;28;20260;-64
2023/11/21 03:37:38;;;;;;;8.37;7.60;;;7.90;99.90;;;;;;5074511;28;20202;-64
2023/11/21 03:40:08;;;;;;;9.10;8.20;;;7.90;99.90;;;;;;5082474;28;20249;-64
2023/11/21 03:42:35;;;;;;;9.33;8.33;;;7.90;99.90;;;;;;5082360;28;20751;-64
2023/11/21 03:45:02;;;;;;;8.50;7.70;;;8.00;99.90;;;;;;5082875;28;20285;-65
2023/11/21 03:47:29;;;;;;;8.40;7.70;;;8.00;99.90;;;;;;5082854;28;20310;-65
2023/11/21 03:49:58;;;;;;;7.57;6.90;;;8.00;99.90;;;;;;5087243;28;20307;-65
2023/11/21 03:52:27;;;;;;;9.33;7.23;;;8.00;99.90;;;;;;5086643;28;20234;-65
2023/11/21 03:54:54;;;;;;;8.00;7.23;;;8.00;99.90;;;;;;5086317;28;20202;-64
2023/11/21 03:57:21;;;;;;;7.43;6.80;;;8.00;99.90;;;;;;5086767;28;20207;-65
2023/11/21 03:59:49;;;;;;;7.70;7.07;;;7.90;99.90;;;;;;5086000;28;20864;-65
2023/11/21 04:02:17;;;;;;;7.90;7.20;;;7.90;99.90;;;;;;5084663;28;20293;-64
2023/11/21 04:04:44;;;;;;;8.17;7.37;;;7.80;99.90;;;;;;5087175;28;20685;-65
2023/11/21 04:07:13;;;;;;;7.97;7.17;;;7.80;99.90;;;;;;5086643;28;20210;-65
2023/11/21 04:09:41;;;;;;;8.37;7.57;;;7.70;99.90;;;;;;5086690;28;20295;-65
2023/11/21 04:12:09;;;;;;;8.83;8.03;;;7.70;99.90;;;;;;5087380;28;20739;-65
2023/11/21 04:14:36;;;;;;;8.23;7.50;;;7.70;99.90;;;;;;5087181;28;20203;-65
2023/11/21 04:17:03;;;;;;;8.30;7.53;;;7.70;99.90;;;;;;5088076;28;20289;-65
2023/11/21 04:19:30;;;;;;;8.33;7.53;;;7.70;99.90;;;;;;5087318;28;20207;-64
2023/11/21 04:21:57;;;;;;;7.57;6.97;;;7.70;99.90;;;;;;5087402;28;20762;-65
2023/11/21 04:24:25;;;;;;;8.00;6.90;;;7.70;99.90;;;;;;5087504;28;20216;-64
2023/11/21 04:26:53;;;;;;;7.53;6.83;;;7.70;99.90;;;;;;5072421;28;20235;-64
2023/11/21 04:29:20;;;;;;;7.60;7.00;;;7.70;99.90;;;;;;5067281;28;20217;-65
2023/11/21 04:31:49;;;;;;;8.50;7.80;;;7.70;99.90;;;;;;5067568;28;20262;-65
2023/11/21 04:34:15;;;;;;;8.10;7.40;;;7.70;99.90;;;;;;5067766;28;20208;-64
2023/11/21 04:36:42;;;;;;;7.83;7.03;;;7.70;99.90;;;;;;5080296;28;20729;-65
2023/11/21 04:39:09;;;;;;;7.30;6.67;;;7.80;99.90;;;;;;5087870;28;20206;-65
2023/11/21 04:41:39;;;;;;;7.70;7.00;;;7.70;99.90;;;;;;5087906;28;20297;-64
2023/11/21 04:44:06;;;;;;;7.03;6.40;;;7.70;99.90;;;;;;5087311;28;20218;-65
2023/11/21 04:46:33;;;;;;;7.80;7.00;;;7.70;99.90;;;;;;5087245;28;20302;-65
2023/11/21 04:49:00;;;;;;;8.30;7.60;;;7.70;99.90;;;;;;5087094;28;20298;-64
2023/11/21 04:51:27;;;;;;;10.70;7.37;;;7.60;99.90;;;;;;5086784;28;20241;-65
2023/11/21 04:53:54;;;;;;;8.47;7.63;;;7.60;99.90;;;;;;5087219;28;20217;-65
2023/11/21 04:56:21;;;;;;;7.23;6.63;;;7.70;99.90;;;;;;5087065;28;20296;-65
2023/11/21 04:58:49;;;;;;;7.93;7.20;;;7.70;99.90;;;;;;5086894;28;20993;-65
2023/11/21 05:01:16;;;;;;;7.90;7.10;;;7.70;99.90;;;;;;5086561;28;20242;-64
2023/11/21 05:03:43;;;;;;;7.77;7.07;;;7.70;99.90;;;;;;5087348;28;20291;-65
2023/11/21 05:06:10;;;;;;;8.73;7.47;;;7.70;99.90;;;;;;5087260;28;20313;-65
2023/11/21 05:08:37;;;;;;;8.10;7.30;;;7.70;99.90;;;;;;5086816;28;20728;-65
2023/11/21 05:11:04;;;;;;;8.13;7.43;;;7.70;99.90;;;;;;5086806;28;21011;-65
2023/11/21 05:13:34;;;;;;;7.80;7.10;;;7.70;99.90;;;;;;5086951;28;20203;-64
2023/11/21 05:16:06;;;;;;;8.10;7.37;;;7.70;99.90;;;;;;5086824;28;20237;-64
2023/11/21 05:18:34;;;;;;;8.53;7.10;;;7.70;99.90;;;;;;5086571;28;20676;-65
2023/11/21 05:21:01;;;;;;;8.30;7.43;;;7.60;99.90;;;;;;5086422;28;20661;-64
2023/11/21 05:23:27;;;;;;;8.40;7.60;;;7.60;99.90;;;;;;5086445;28;20287;-65
2023/11/21 05:25:56;;;;;;;8.43;7.53;;;7.60;99.90;;;;;;5077399;28;20227;-65
2023/11/21 05:28:23;;;;;;;8.00;7.03;;;7.60;99.90;;;;;;5066485;28;20638;-65
2023/11/21 05:30:50;;;;;;;7.93;7.17;;;7.60;99.90;;;;;;5066301;28;20673;-65
2023/11/21 05:33:18;;;;;;;7.87;7.07;;;7.60;99.90;;;;;;5066128;28;20246;-65
2023/11/21 05:35:45;;;;;;;8.20;7.40;;;7.50;99.90;;;;;;5071449;28;20300;-65
2023/11/21 05:38:12;;;;;;;7.73;7.03;;;7.50;99.90;;;;;;5086687;28;20736;-64
2023/11/21 05:40:39;;;;;;;8.97;7.07;;;7.50;99.90;;;;;;5086058;28;20246;-65
2023/11/21 05:43:06;;;;;;;7.47;6.87;;;7.60;99.90;;;;;;5086350;28;20254;-64
2023/11/21 05:45:33;;;;;;;7.10;6.50;;;7.60;99.90;;;;;;5086146;28;20302;-64
2023/11/21 05:48:00;;;;;;;7.93;7.17;;;7.60;99.90;;;;;;5086138;28;20306;-64
2023/11/21 05:50:28;;;;;;;7.07;6.37;;;7.60;99.90;;;;;;5086462;28;20305;-65
2023/11/21 05:52:55;;;;;;;7.87;6.63;;;7.60;99.90;;;;;;5085980;28;20234;-65
2023/11/21 05:55:25;;;;;;;7.00;6.30;;;7.50;99.90;;;;;;5086021;28;20569;-64
2023/11/21 05:57:53;;;;;;;7.40;6.40;;;7.50;99.90;;;;;;5086137;28;20197;-64
2023/11/21 06:00:21;;;;;;;7.43;6.63;;;7.50;99.90;;;;;;5085466;28;20209;-64
2023/11/21 06:02:50;;;;;;;7.67;6.87;;;7.40;99.90;;;;;;5084765;28;20259;-64
2023/11/21 06:05:18;;;;;;;7.67;6.97;;;7.40;99.90;;;;;;5085987;28;20673;-64
2023/11/21 06:07:47;;;;;;;7.13;6.53;;;7.40;99.90;;;;;;5085710;28;20238;-65
2023/11/21 06:10:14;;;;;;;7.90;7.10;;;7.40;99.90;;;;;;5082843;28;20211;-64
2023/11/21 06:12:42;;;;;;;7.50;6.80;;;7.30;99.90;;;;;;5064836;28;20237;-65
2023/11/21 06:15:13;;;;;;;7.23;6.63;;;7.30;99.90;;;;;;5065670;28;20234;-64
2023/11/21 06:17:40;;;;;;;6.63;5.90;;;7.30;99.90;;;;;;5066488;28;20196;-64
2023/11/21 06:20:09;;;;;;;10.20;6.87;;;7.30;99.90;;;;;;5085987;28;20282;-64
2023/11/21 06:22:37;;;;;;;6.93;6.23;;;7.40;99.90;;;;;;5085921;28;20207;-64
2023/11/21 06:25:07;;;;;;;6.60;6.10;;;7.40;99.90;;;;;;5085693;28;20721;-65
2023/11/21 06:27:34;;;;;;;6.37;5.77;;;7.30;99.90;;;;;;5085880;28;20285;-65
2023/11/21 06:30:01;;;;;;;6.53;6.03;;;7.30;99.90;;;;;;5085777;28;20299;-65
2023/11/21 06:32:29;;;;;;;7.37;6.00;;;7.30;99.90;;;;;;5085065;28;20635;-64
2023/11/21 06:34:58;;;;;;;5.70;5.30;;;7.20;99.90;;;;;;5085622;28;20205;-65
2023/11/21 06:37:25;;;;;;;5.97;5.47;;;7.20;99.90;;;;;;5085166;28;20539;-64
2023/11/21 06:39:52;;;;;;;6.97;6.27;;;7.30;99.90;;;;;;5085781;28;20230;-64
2023/11/21 06:42:20;;;;;;;6.77;6.00;;;7.20;99.90;;;;;;5085693;28;20587;-64
2023/11/21 06:44:48;;;;;;;5.87;5.30;;;7.30;99.90;;;;;;5085584;28;20203;-65
2023/11/21 06:47:15;;;;;;;5.27;4.80;;;7.30;99.90;;;;;;5085260;28;20238;-64
2023/11/21 06:49:43;;;;;;;5.53;5.13;;;7.30;99.90;;;;;;5084864;28;20298;-64
2023/11/21 06:52:10;;;;;;;5.53;5.03;;;7.20;99.90;;;;;;5084755;28;20351;-66
2023/11/21 06:54:38;;;;;;;5.07;4.67;;;7.20;99.90;;;;;;5084851;28;20655;-64
2023/11/21 06:57:05;;;;;;;5.33;4.87;;;7.20;99.90;;;;;;5084988;28;20293;-65
2023/11/21 06:59:33;;;;;;;5.37;4.97;;;7.20;99.90;;;;;;5084242;28;20294;-64
2023/11/21 07:02:00;;;;;;;4.97;4.57;;;7.20;99.90;;;;;;5084498;28;20746;-65
2023/11/21 07:04:27;;;;;;;4.80;4.50;;;7.20;99.90;;;;;;5084864;28;20210;-64
2023/11/21 07:06:54;;;;;;;4.60;4.13;;;7.20;99.90;;;;;;5084880;28;20302;-64
2023/11/21 07:09:22;;;;;;;4.50;4.07;;;7.20;99.90;;;;;;5084409;28;20242;-65
2023/11/21 07:11:49;;;;;;;4.13;3.73;;;7.20;99.90;;;;;;5084359;28;20696;-64
2023/11/21 07:14:16;;;;;;;4.43;4.03;;;7.20;99.90;;;;;;5084835;28;20238;-64
2023/11/21 07:16:45;;;;;;;4.20;3.90;;;7.20;99.90;;;;;;5084561;28;20737;-65
2023/11/21 07:19:12;;;;;;;4.03;3.73;;;7.20;99.90;;;;;;5084746;28;20637;-64
2023/11/21 07:21:40;;;;;;;4.00;3.70;;;7.20;99.90;;;;;;5084768;28;20215;-65
2023/11/21 07:24:08;;;;;;;3.57;3.27;;;7.20;99.90;;;;;;5089964;28;20783;-65
2023/11/21 07:26:36;;;;;;;3.40;3.20;;;7.20;99.90;;;;;;5076346;28;20210;-65
2023/11/21 07:29:03;;;;;;;3.53;3.33;;;7.20;99.90;;;;;;5071164;28;20289;-64
2023/11/21 07:31:33;;;;;;;3.83;3.53;;;7.20;99.90;;;;;;5070612;28;20307;-65
2023/11/21 07:34:01;;;;;;;3.83;3.53;;;7.20;99.90;;;;;;5074834;28;20248;-65
2023/11/21 07:36:28;;;;;;;3.90;3.60;;;7.20;99.90;;;;;;5091120;28;20285;-65
2023/11/21 07:38:55;;;;;;;4.10;3.80;;;7.20;99.90;;;;;;5091332;28;20289;-64
2023/11/21 07:41:22;;;;;;;4.47;3.30;;;7.20;99.90;;;;;;5091408;28;20217;-64
2023/11/21 07:43:49;;;;;;;3.63;3.27;;;7.20;99.90;;;;;;5090975;28;20305;-64
2023/11/21 07:46:16;;;;;;;3.40;3.17;;;7.20;99.90;;;;;;5091076;28;20202;-65
2023/11/21 07:48:43;;;;;;;3.40;3.20;;;7.20;99.90;;;;;;5091110;28;20212;-65
2023/11/21 07:51:13;;;;;;;4.90;3.70;;;7.20;99.90;;;;;;5090851;28;20217;-64
2023/11/21 07:53:40;;;;;;;4.27;3.97;;;7.20;99.90;;;;;;5091063;28;20238;-65
2023/11/21 07:56:08;;;;;;;3.87;3.23;;;7.20;99.90;;;;;;5090976;28;20211;-64
2023/11/21 07:58:35;;;;;;;4.00;3.60;;;7.20;99.90;;;;;;5090988;28;20233;-65
2023/11/21 08:01:03;;;;;;;4.43;4.13;;;7.20;99.90;;;;;;5090824;28;20206;-64
2023/11/21 08:03:30;;;;;;;3.57;3.37;;;7.30;99.90;;;;;;5090607;28;20210;-65
2023/11/21 08:05:57;;;;;;;4.17;3.63;;;7.30;99.90;;;;;;5090640;28;20206;-65
2023/11/21 08:08:25;;;;;;;4.40;3.87;;;7.20;99.90;;;;;;5090327;28;20411;-65
2023/11/21 08:10:56;;;;;;;4.03;3.73;;;7.20;99.90;;;;;;5090613;28;20305;-64
2023/11/21 08:13:23;;;;;;;3.57;3.37;;;7.20;99.90;;;;;;5090483;28;20280;-65
2023/11/21 08:15:50;;;;;;;4.03;3.70;;;7.20;99.90;;;;;;5090392;28;20748;-64
2023/11/21 08:18:17;;;;;;;3.80;3.60;;;7.20;99.90;;;;;;5090741;28;20302;-64
2023/11/21 08:20:47;;;;;;;3.67;3.47;;;7.20;99.90;;;;;;5090783;28;20250;-65
2023/11/21 08:23:16;;;;;;;3.90;3.60;;;7.20;99.90;;;;;;5090686;28;20708;-65
2023/11/21 08:25:44;;;;;;;4.40;4.07;;;7.20;99.90;;;;;;5082633;28;20227;-64
2023/11/21 08:28:11;;;;;;;3.73;3.43;;;7.20;99.90;;;;;;5070439;28;20836;-64
2023/11/21 08:30:38;;;;;;;4.10;3.70;;;7.30;99.90;;;;;;5077240;28;20305;-64
2023/11/21 08:33:05;;;;;;;3.57;3.27;;;7.20;99.90;;;;;;5090667;28;20317;-64
2023/11/21 08:35:32;;;;;;;3.57;3.33;;;7.20;99.90;;;;;;5087297;28;20276;-64
2023/11/21 08:37:59;;;;;;;3.13;2.93;;;7.20;99.90;;;;;;5087659;28;20211;-65
2023/11/21 08:40:26;;;;;;;3.80;3.50;;;7.20;99.90;;;;;;5087338;28;20199;-64
2023/11/21 08:42:54;;;;;;;3.57;3.37;;;7.20;99.90;;;;;;5087229;28;20216;-65
2023/11/21 08:45:22;;;;;;;4.03;3.50;;;7.20;99.90;;;;;;5087305;28;20203;-64
2023/11/21 08:47:50;;;;;;;3.67;3.37;;;7.20;99.90;;;;;;5087284;28;20209;-64
2023/11/21 08:50:17;;;;;;;3.80;3.50;;;7.10;99.90;;;;;;5087404;28;20211;-65
2023/11/21 08:52:46;;;;;;;3.23;3.03;;;7.20;99.90;;;;;;5086947;28;20234;-64
2023/11/21 08:55:13;;;;;;;3.43;3.23;;;7.20;99.90;;;;;;5083252;28;20215;-64
2023/11/21 08:57:41;;;;;;;3.10;2.90;;;7.20;99.90;;;;;;5066681;28;20265;-65
2023/11/21 09:00:11;;;;;;;3.20;2.60;;;7.20;99.90;;;;;;5079280;28;20214;-64
2023/11/21 09:02:38;;;;;;;2.70;2.50;;;7.20;99.90;;;;;;5086172;28;20325;-64
2023/11/21 09:05:06;;;;;;;2.57;2.47;;;7.20;99.90;;;;;;5086882;28;20646;-64
2023/11/21 09:07:33;;;;;;;2.90;2.70;;;7.20;99.90;;;;;;5086020;28;20246;-65
2023/11/21 09:10:00;;;;;;;2.87;2.67;;;7.20;99.90;;;;;;5086861;28;20206;-64
2023/11/21 09:12:27;;;;;;;2.80;2.60;;;7.20;99.90;;;;;;5086716;28;20280;-65
2023/11/21 09:14:54;;;;;;;2.87;2.73;;;7.20;99.90;;;;;;5086941;28;20690;-64
2023/11/21 09:17:22;;;;;;;3.03;2.83;;;7.20;99.90;;;;;;5086472;28;20210;-64
2023/11/21 09:19:51;;;;;;;3.10;2.90;;;7.20;99.90;;;;;;5086795;28;20210;-64
2023/11/21 09:22:18;;;;;;;2.47;2.37;;;7.20;99.90;;;;;;5087095;28;20377;-65
2023/11/21 09:24:45;;;;;;;3.10;2.90;;;7.20;99.90;;;;;;5086672;28;20535;-64
2023/11/21 09:27:12;;;;;;;2.63;2.43;;;7.10;99.90;;;;;;5086651;28;20294;-64
2023/11/21 09:29:39;;;;;;;2.70;2.50;;;7.20;99.90;;;;;;5086841;28;20305;-65
2023/11/21 09:32:08;;;;;;;2.60;2.40;;;7.10;99.90;;;;;;5086342;28;20211;-65
2023/11/21 09:34:38;;;;;;;2.63;2.30;;;7.10;99.90;;;;;;5086559;28;20210;-65
2023/11/21 09:37:06;;;;;;;2.60;2.43;;;7.10;99.90;;;;;;5086659;28;20199;-64
2023/11/21 09:39:34;;;;;;;2.50;2.30;;;7.20;99.90;;;;;;5085894;28;20950;-65
2023/11/21 09:42:06;;;;;;;3.00;2.80;;;7.20;99.90;;;;;;5086698;28;20207;-64
2023/11/21 09:44:37;;;;;;;3.03;2.83;;;7.20;99.90;;;;;;5086420;28;20233;-65
2023/11/21 09:47:07;;;;;;;2.63;2.50;;;7.20;99.90;;;;;;5086154;28;20195;-65
2023/11/21 09:49:38;;;;;;;3.10;2.50;;;7.30;99.90;;;;;;5085790;28;20711;-65
2023/11/21 09:52:08;;;;;;;3.30;2.70;;;7.30;99.90;;;;;;5086061;28;20746;-64
2023/11/21 09:54:36;;;;;;;2.80;2.60;;;7.30;99.90;;;;;;5085580;28;20326;-65
2023/11/21 09:57:03;;;;;;;3.00;2.80;;;7.30;99.90;;;;;;5085191;28;20305;-65
2023/11/21 09:59:32;;;;;;;3.50;2.43;;;7.30;99.90;;;;;;5085691;28;20326;-65
2023/11/21 10:01:59;;;;;;;3.20;2.90;;;7.30;99.90;;;;;;5086141;28;20230;-65
2023/11/21 10:04:27;;;;;;;3.13;2.80;;;7.30;99.90;;;;;;5085834;28;20246;-65
2023/11/21 10:06:56;;;;;;;2.90;2.70;;;7.30;99.90;;;;;;5085723;28;20246;-64
2023/11/21 10:09:27;;;;;;;2.90;2.70;;;7.30;99.90;;;;;;5085480;28;20242;-65
2023/11/21 10:11:54;;;;;;;2.60;2.50;;;7.40;99.90;;;;;;5085546;28;20194;-65
2023/11/21 10:14:25;;;;;;;3.00;2.70;;;7.40;99.90;;;;;;5067830;28;20231;-65
2023/11/21 10:16:53;;;;;;;2.90;2.70;;;7.40;99.90;;;;;;5064782;28;20721;-64
2023/11/21 10:19:23;;;;;;;2.97;2.77;;;7.30;99.90;;;;;;5065122;28;20211;-64
2023/11/21 10:21:51;;;;;;;2.80;2.60;;;7.30;99.90;;;;;;5065130;28;20203;-65
2023/11/21 10:24:19;;;;;;;2.93;2.73;;;7.30;99.90;;;;;;5081485;28;20235;-64
2023/11/21 10:26:48;;;;;;;4.60;2.93;;;7.30;99.90;;;;;;5085448;28;20510;-64
2023/11/21 10:29:16;;;;;;;3.40;3.10;;;7.30;99.90;;;;;;5085374;28;20333;-65
2023/11/21 10:31:44;;;;;;;3.10;2.90;;;7.20;99.90;;;;;;5084913;28;20234;-65
2023/11/21 10:34:15;;;;;;;3.10;2.90;;;7.20;99.90;;;;;;5085240;28;20234;-65
2023/11/21 10:36:43;;;;;;;2.87;2.60;;;7.20;99.90;;;;;;5085135;28;20331;-64
2023/11/21 10:39:10;;;;;;;3.10;2.90;;;7.20;99.90;;;;;;5084822;28;20207;-65
2023/11/21 10:41:39;;;;;;;3.20;3.00;;;7.10;99.90;;;;;;5085107;28;20210;-65
2023/11/21 10:44:09;;;;;;;3.50;3.20;;;7.10;99.90;;;;;;5085139;28;20214;-65
2023/11/21 10:46:36;;;;;;;3.40;3.10;;;7.10;99.90;;;;;;5084448;28;20687;-65
2023/11/21 10:49:02;;;;;;;3.50;3.20;;;7.10;99.90;;;;;;5084670;28;20217;-65
2023/11/21 10:51:29;;;;;;;3.33;3.07;;;7.00;99.90;;;;;;5084676;28;20207;-64
2023/11/21 10:53:56;;;;;;;2.70;2.60;;;7.00;99.90;;;;;;5085001;28;20240;-64
2023/11/21 10:56:26;;;;;;;3.23;3.03;;;7.00;99.90;;;;;;5084657;28;20724;-65
2023/11/21 10:58:55;;;;;;;3.27;3.07;;;7.00;99.90;;;;;;5084173;28;20302;-65
2023/11/21 11:01:29;;;;;;;3.57;2.97;;;7.00;99.90;;;;;;5084492;28;20679;-65
2023/11/21 11:03:57;;;;;;;3.37;2.97;;;7.00;99.90;;;;;;5084680;28;20202;-64
2023/11/21 11:06:27;;;;;;;5.30;3.13;;;6.90;99.90;;;;;;5084389;28;20671;-65
2023/11/21 11:08:55;;;;;;;3.30;3.00;;;6.90;99.90;;;;;;5084017;28;20321;-64
2023/11/21 11:11:22;;;;;;;3.63;3.33;;;6.90;99.90;;;;;;5084603;28;20212;-65
2023/11/21 11:13:49;;;;;;;3.70;3.40;;;6.90;99.90;;;;;;5084627;28;20317;-65
2023/11/21 11:16:18;;;;;;;4.20;3.30;;;6.90;99.90;;;;;;5084451;28;20214;-65
2023/11/21 11:18:47;;;;;;;3.60;3.30;;;6.90;99.90;;;;;;5084606;28;20313;-64
2023/11/21 11:21:25;;;;;;;4.50;3.50;;;6.90;99.90;;;;;;5084544;28;20641;-65
2023/11/21 11:24:14;;;;;;;3.93;2.97;;;6.90;99.90;;;;;;5084666;28;20337;-65
2023/11/21 11:26:49;;;;;;;3.23;2.93;;;6.90;99.90;;;;;;5069175;28;20215;-64
2023/11/21 11:29:24;;;;;;;3.57;3.10;;;6.80;99.90;;;;;;5064622;28;20677;-65
2023/11/21 11:32:04;;;;;;;3.60;3.30;;;6.80;99.90;;;;;;5067735;28;20926;-64
2023/11/21 11:34:38;;;;;;;3.90;3.10;;;6.80;99.90;;;;;;5084080;28;20241;-65
2023/11/21 11:37:08;;;;;;;3.57;3.27;;;6.80;99.90;;;;;;5084220;28;20213;-65
2023/11/21 11:39:37;;;;;;;3.40;3.10;;;6.70;99.90;;;;;;5084101;28;20669;-65
2023/11/21 11:42:06;;;;;;;3.70;3.40;;;6.70;99.90;;;;;;5084610;28;20848;-65
2023/11/21 11:44:55;;;;;;;3.97;3.30;;;6.70;99.90;;;;;;5084229;28;20288;-64
2023/11/21 11:47:27;;;;;;;3.17;2.97;;;6.70;99.90;;;;;;5084160;28;20268;-65
2023/11/21 11:50:13;;;;;;;3.70;3.40;;;6.60;99.90;;;;;;5064361;28;20199;-65
2023/11/21 11:52:42;;;;;;;3.10;2.80;;;6.70;99.90;;;;;;5063996;28;20661;-64
2023/11/21 11:55:11;;;;;;;3.00;2.80;;;6.70;99.90;;;;;;5067065;28;20333;-64
2023/11/21 11:57:39;;;;;;;3.33;3.00;;;6.70;99.90;;;;;;5083808;28;20299;-65
2023/11/21 12:00:15;;;;;;;3.87;3.57;;;6.70;99.90;;;;;;5083951;28;20203;-65
2023/11/21 12:02:47;;;;;;;3.50;3.20;;;6.60;99.90;;;;;;5084171;28;20198;-64
2023/11/21 12:05:15;;;;;;;3.07;2.83;;;6.60;99.90;;;;;;5084003;28;20195;-63
2023/11/21 12:07:51;;;;;;;3.83;3.43;;;6.60;99.90;;;;;;5083720;28;20333;-64
2023/11/21 12:10:19;;;;;;;3.43;3.17;;;6.70;99.90;;;;;;5085621;28;20237;-63
2023/11/21 12:12:47;;;;;;;4.80;3.10;;;6.70;99.90;;;;;;5087819;28;20220;-64
2023/11/21 12:15:14;;;;;;;3.87;3.17;;;6.70;99.90;;;;;;5088018;28;20315;-64
2023/11/21 12:17:45;;;;;;;3.90;3.20;;;6.70;99.90;;;;;;5087834;28;20210;-64
2023/11/21 12:20:16;;;;;;;3.30;3.00;;;6.70;99.90;;;;;;5087905;28;20214;-63
2023/11/21 12:22:44;;;;;;;3.83;3.50;;;6.70;99.90;;;;;;5088060;28;20203;-63
2023/11/21 12:25:15;;;;;;;3.57;3.23;;;6.70;99.90;;;;;;5087846;28;20254;-64
2023/11/21 12:27:44;;;;;;;3.60;3.30;;;6.70;99.90;;;;;;5087999;28;20242;-64
2023/11/21 12:30:13;;;;;;;3.50;3.07;;;6.70;99.90;;;;;;5087878;28;20234;-64
2023/11/21 12:32:41;;;;;;;3.77;3.40;;;6.70;99.90;;;;;;5087113;28;20673;-63
2023/11/21 12:35:10;;;;;;;3.47;3.07;;;6.70;99.90;;;;;;5087751;28;20230;-64
2023/11/21 12:37:38;;;;;;;3.20;2.90;;;6.70;99.90;;;;;;5087873;28;20753;-63
2023/11/21 12:40:07;;;;;;;3.50;3.20;;;6.70;99.90;;;;;;5087675;28;20203;-64
2023/11/21 12:42:35;;;;;;;3.47;3.00;;;6.70;99.90;;;;;;5087701;28;20317;-64
2023/11/21 12:45:19;;;;;;;3.27;2.93;;;6.70;99.90;;;;;;5087301;28;20301;-64
2023/11/21 12:47:47;;;;;;;4.07;3.43;;;6.70;99.90;;;;;;5087441;28;20686;-64
2023/11/21 12:50:16;;;;;;;5.40;3.63;;;6.70;99.90;;;;;;5087830;28;20317;-64
2023/11/21 12:52:47;;;;;;;3.70;3.40;;;6.70;99.90;;;;;;5087041;28;20248;-63
2023/11/21 12:55:21;;;;;;;5.60;4.00;;;6.70;99.90;;;;;;5083371;28;20227;-64
2023/11/21 12:57:51;;;;;;;4.60;4.20;;;6.70;99.90;;;;;;5066818;28;20192;-64
2023/11/21 13:00:27;;;;;;;6.03;4.53;;;6.70;99.90;;;;;;5066673;28;20613;-64